Wec Majorelle — 5BSJ3 — position and weather

sailwx.info

Track history (hours):
 
Tides and Currents Weather Stations Pressure Air Temp Water Temp Dewpoint Dewpoint Depression Visibility Wind Speed Wind Dir Waves Ship Positions

Wec Majorelle

Last reported at 2018-Feb-21 14:23 UTC. Time now 2018-Feb-22 13:14 UTC.
Position N 34°39' E 033°03'.

Length 122 m; draft 4.9 m.

Type: Ship (hazmat cat B). MMSI: 210312000.

Date/timePositionNaut miles runAvg speedWind from/ knotsBaromVisibWave heightAir tempDewpointWater temp
2018-Feb-21 14:23N 34°39' E 033°03'1 1.4
2018-Feb-21 13:27N 34°39' E 033°01'0 0.0
2018-Feb-21 12:45N 34°39' E 033°01'0 0.0
2018-Feb-21 12:30N 34°39' E 033°01'0 0.0
2018-Feb-21 11:57N 34°39' E 033°01'0 0.0
2018-Feb-21 11:30N 34°39' E 033°01'0 0.0
2018-Feb-21 11:00N 34°39' E 033°01'0 0.0
2018-Feb-21 10:27N 34°39' E 033°01'0 0.0
2018-Feb-21 10:00N 34°39' E 033°01'0 0.0
2018-Feb-21 09:29N 34°39' E 033°01'0 0.0
2018-Feb-21 08:57N 34°39' E 033°01'0 0.0
2018-Feb-21 08:30N 34°39' E 033°01'0 0.0
2018-Feb-21 08:00N 34°39' E 033°01'0 0.0
2018-Feb-21 07:30N 34°39' E 033°01'0 0.0
2018-Feb-21 07:00N 34°39' E 033°01'0 0.0
2018-Feb-21 06:30N 34°39' E 033°01'0 0.0
2018-Feb-21 05:57N 34°39' E 033°01'0 0.0
2018-Feb-21 05:30N 34°39' E 033°01'0 0.0
2018-Feb-21 05:00N 34°39' E 033°01'0 0.0
2018-Feb-21 04:30N 34°39' E 033°01'0 0.0
2018-Feb-21 03:54N 34°39' E 033°01'0 0.0
2018-Feb-21 03:30N 34°39' E 033°01'0 0.0
2018-Feb-21 03:00N 34°39' E 033°01'0 0.0
2018-Feb-21 02:30N 34°39' E 033°01'0 0.0
2018-Feb-21 01:57N 34°39' E 033°01'0 0.0
2018-Feb-21 01:27N 34°39' E 033°01'0 0.0
2018-Feb-21 00:57N 34°39' E 033°01'0 0.0
2018-Feb-21 00:27N 34°39' E 033°01'0 0.0
2018-Feb-20 23:57N 34°39' E 033°01'0 0.0
2018-Feb-20 23:30N 34°39' E 033°01'0 0.0
2018-Feb-20 23:00N 34°39' E 033°01'0 0.0
2018-Feb-20 22:30N 34°39' E 033°01'0 0.0
2018-Feb-20 22:00N 34°39' E 033°01'0 0.0
2018-Feb-20 21:30N 34°39' E 033°01'0 0.0
2018-Feb-20 21:00N 34°39' E 033°01'0 0.0
2018-Feb-20 20:30N 34°39' E 033°01'0 0.0
2018-Feb-20 19:39N 34°39' E 033°01'0 0.0
2018-Feb-20 19:30N 34°39' E 033°01'2 3.5
2018-Feb-20 18:57N 34°40' E 033°03'0 0.5
2018-Feb-20 18:28N 34°40' E 033°03'1 1.3
2018-Feb-20 18:00N 34°40' E 033°04'0 0.0
2018-Feb-20 02:57N 34°40' E 033°04'0 0.0
2018-Feb-20 01:51N 34°40' E 033°04'0 0.0
2018-Feb-20 01:24N 34°40' E 033°04'0 0.0
2018-Feb-20 00:42N 34°40' E 033°04'0 0.0
2018-Feb-20 00:30N 34°40' E 033°04'0 0.0
2018-Feb-19 23:00N 34°40' E 033°04'0 0.0
2018-Feb-19 22:21N 34°40' E 033°04'0 0.0
2018-Feb-19 22:00N 34°40' E 033°04'0 0.0
2018-Feb-19 21:18N 34°40' E 033°04'0 0.0
2018-Feb-19 21:00N 34°40' E 033°04'0 0.0
2018-Feb-19 20:27N 34°40' E 033°04'0 0.0
2018-Feb-19 20:00N 34°40' E 033°04'0 0.2
2018-Feb-19 19:30N 34°40' E 033°04'48513.6
2018-Feb-18 07:43N 37°38' E 023°45'314.1
2018-Feb-18 07:31N 37°40' E 023°43'714.4
2018-Feb-18 07:01N 37°47' E 023°39'714.4
2018-Feb-18 06:31N 37°53' E 023°36'4 7.9
2018-Feb-18 06:00N 37°57' E 023°35'0 0.1
2018-Feb-18 05:28N 37°57' E 023°35'0 0.0
2018-Feb-18 04:58N 37°57' E 023°35'0 0.1
2018-Feb-18 04:28N 37°57' E 023°35'0 0.1
2018-Feb-18 03:58N 37°57' E 023°35'0 0.0
2018-Feb-18 03:28N 37°57' E 023°35'0 0.0
2018-Feb-18 02:58N 37°57' E 023°35'0 0.0
2018-Feb-18 02:28N 37°57' E 023°35'0 0.0
2018-Feb-18 01:58N 37°57' E 023°35'0 0.0
2018-Feb-18 01:28N 37°57' E 023°35'0 0.0
2018-Feb-18 00:58N 37°57' E 023°35'0 0.0
2018-Feb-18 00:28N 37°57' E 023°35'0 0.0
2018-Feb-17 23:58N 37°57' E 023°35'0 0.0
2018-Feb-17 23:28N 37°57' E 023°35'0 0.0
2018-Feb-17 22:58N 37°57' E 023°35'0 0.0
2018-Feb-17 22:28N 37°57' E 023°35'0 0.0
2018-Feb-17 21:58N 37°57' E 023°35'0 0.0
2018-Feb-17 21:28N 37°57' E 023°35'0 0.0
2018-Feb-17 20:58N 37°57' E 023°35'0 0.0
2018-Feb-17 20:28N 37°57' E 023°35'0 0.0
2018-Feb-17 19:58N 37°57' E 023°35'0 0.0
2018-Feb-17 19:28N 37°57' E 023°35'0 0.0
2018-Feb-17 18:58N 37°57' E 023°35'0 0.0
2018-Feb-17 18:28N 37°57' E 023°35'0 0.0
2018-Feb-17 17:58N 37°57' E 023°35'0 0.0
2018-Feb-17 17:28N 37°57' E 023°35'0 0.0
2018-Feb-17 16:58N 37°57' E 023°35'0 0.0
2018-Feb-17 16:28N 37°57' E 023°35'0 0.0
2018-Feb-17 15:58N 37°57' E 023°35'0 0.0
2018-Feb-17 15:28N 37°57' E 023°35'1 1.1
2018-Feb-17 15:00N 37°57' E 023°35'1 2.8
2018-Feb-17 14:30N 37°55' E 023°35'1 1.0
2018-Feb-17 14:00N 37°55' E 023°35'1 2.3
2018-Feb-17 13:30N 37°54' E 023°34'0 0.2
2018-Feb-17 13:00N 37°54' E 023°34'0 0.0
2018-Feb-17 12:30N 37°54' E 023°34'0 0.1
2018-Feb-17 12:00N 37°54' E 023°34'0 0.0
2018-Feb-17 11:30N 37°54' E 023°34'0 0.0
2018-Feb-17 11:00N 37°54' E 023°34'0 0.1
2018-Feb-17 10:30N 37°54' E 023°34'0 0.1
2018-Feb-17 10:00N 37°54' E 023°34'0 0.1
2018-Feb-17 09:30N 37°54' E 023°34'0 0.0
2018-Feb-17 09:00N 37°54' E 023°34'0 0.0
2018-Feb-17 08:30N 37°54' E 023°34'0 0.0
2018-Feb-17 07:57N 37°54' E 023°34'0 0.2
2018-Feb-17 07:30N 37°54' E 023°34'0 0.0
2018-Feb-17 06:57N 37°54' E 023°34'0 0.1
2018-Feb-17 06:30N 37°54' E 023°34'0 0.0
2018-Feb-17 06:00N 37°54' E 023°34'0 0.0
2018-Feb-17 05:27N 37°54' E 023°34'0 0.0
2018-Feb-17 05:00N 37°54' E 023°34'0 0.0
2018-Feb-17 04:30N 37°54' E 023°34'0 0.0
2018-Feb-17 04:00N 37°54' E 023°34'0 0.0
2018-Feb-17 03:30N 37°54' E 023°34'0 0.0
2018-Feb-17 03:00N 37°54' E 023°34'0 0.0
2018-Feb-17 02:30N 37°54' E 023°34'0 0.0
2018-Feb-17 02:00N 37°54' E 023°34'0 0.1
2018-Feb-17 01:30N 37°54' E 023°34'0 0.1
2018-Feb-17 01:00N 37°54' E 023°34'0 0.0
2018-Feb-17 00:30N 37°54' E 023°34'0 0.0
2018-Feb-17 00:00N 37°54' E 023°34'0 0.0
2018-Feb-16 23:30N 37°54' E 023°34'0 0.1
2018-Feb-16 23:00N 37°54' E 023°34'0 0.0
2018-Feb-16 22:30N 37°54' E 023°34'0 0.0
2018-Feb-16 22:00N 37°54' E 023°34'0 0.1
2018-Feb-16 21:30N 37°54' E 023°34'0 0.0
2018-Feb-16 21:00N 37°54' E 023°34'0 0.0
2018-Feb-16 20:30N 37°54' E 023°34'0 0.0
2018-Feb-16 20:00N 37°54' E 023°34'0 0.1
2018-Feb-16 19:27N 37°54' E 023°34'0 0.1
2018-Feb-16 19:00N 37°54' E 023°34'0 0.0
2018-Feb-16 18:30N 37°54' E 023°34'0 0.0
2018-Feb-16 18:00N 37°54' E 023°34'0 0.0
2018-Feb-16 17:30N 37°54' E 023°34'0 0.1
2018-Feb-16 17:00N 37°54' E 023°34'0 0.1
2018-Feb-16 16:30N 37°54' E 023°34'0 0.0
2018-Feb-16 16:00N 37°54' E 023°34'0 0.1
2018-Feb-16 15:30N 37°54' E 023°34'0 0.1
2018-Feb-16 15:00N 37°54' E 023°34'0 0.1
2018-Feb-16 14:30N 37°54' E 023°34'0 0.2
2018-Feb-16 13:57N 37°54' E 023°34'0 0.2
2018-Feb-16 13:30N 37°54' E 023°34'0 0.0
2018-Feb-16 13:00N 37°54' E 023°34'0 0.1
2018-Feb-16 12:27N 37°54' E 023°34'0 0.0
2018-Feb-16 12:00N 37°54' E 023°34'0 0.0
2018-Feb-16 11:30N 37°54' E 023°34'0 0.1
2018-Feb-16 11:00N 37°54' E 023°34'0 0.1
2018-Feb-16 10:30N 37°54' E 023°34'0 0.0
2018-Feb-16 10:00N 37°54' E 023°34'0 0.0
2018-Feb-16 09:30N 37°54' E 023°34'0 0.1
2018-Feb-16 09:00N 37°54' E 023°34'0 0.1
2018-Feb-16 08:30N 37°54' E 023°34'0 0.0
2018-Feb-16 08:00N 37°54' E 023°34'0 0.1
2018-Feb-16 07:30N 37°54' E 023°34'0 0.1
2018-Feb-16 07:00N 37°54' E 023°34'0 0.0
2018-Feb-16 06:27N 37°54' E 023°34'0 0.1
2018-Feb-16 06:00N 37°54' E 023°34'0 0.0
2018-Feb-16 05:30N 37°54' E 023°34'0 0.1
2018-Feb-16 05:00N 37°54' E 023°34'0 0.0
2018-Feb-16 04:30N 37°54' E 023°34'0 0.1
2018-Feb-16 04:00N 37°54' E 023°34'0 0.0
2018-Feb-16 03:30N 37°54' E 023°34'0 0.0
2018-Feb-16 03:00N 37°54' E 023°34'0 0.0
2018-Feb-16 02:30N 37°54' E 023°34'0 0.1
2018-Feb-16 02:00N 37°54' E 023°34'0 0.1
2018-Feb-16 01:30N 37°54' E 023°34'0 0.0
2018-Feb-16 01:00N 37°54' E 023°34'0 0.1
2018-Feb-16 00:30N 37°54' E 023°34'0 0.2
2018-Feb-16 00:00N 37°54' E 023°34'2 3.9
2018-Feb-15 23:30N 37°53' E 023°35'510.7
2018-Feb-15 23:00N 37°49' E 023°40'612.6
2018-Feb-15 22:30N 37°43' E 023°44'713.0
2018-Feb-15 22:00N 37°38' E 023°49'48212.0
2018-Feb-14 05:56N 34°39' E 033°03'1 3.2
2018-Feb-14 05:30N 34°39' E 033°01'0 0.0
2018-Feb-14 05:00N 34°39' E 033°01'0 0.0
2018-Feb-14 04:30N 34°39' E 033°01'0 0.0
2018-Feb-14 04:00N 34°39' E 033°01'0 0.0
2018-Feb-14 03:24N 34°39' E 033°01'0 0.0
2018-Feb-14 03:00N 34°39' E 033°01'0 0.0
2018-Feb-14 02:30N 34°39' E 033°01'0 0.0
2018-Feb-14 02:00N 34°39' E 033°01'0 0.0
2018-Feb-14 01:30N 34°39' E 033°01'0 0.0
2018-Feb-14 00:57N 34°39' E 033°01'0 0.0
2018-Feb-14 00:15N 34°39' E 033°01'0 0.0
2018-Feb-14 00:00N 34°39' E 033°01'0 0.0
2018-Feb-13 23:30N 34°39' E 033°01'0 0.0
2018-Feb-13 23:00N 34°39' E 033°01'0 0.0
2018-Feb-13 22:30N 34°39' E 033°01'0 0.0
2018-Feb-13 21:57N 34°39' E 033°01'0 0.0
2018-Feb-13 21:30N 34°39' E 033°01'0 0.0
2018-Feb-13 21:00N 34°39' E 033°01'0 0.0
2018-Feb-13 20:30N 34°39' E 033°01'0 0.0
2018-Feb-13 20:00N 34°39' E 033°01'1 3.0
2018-Feb-13 19:30N 34°39' E 033°03'48413.5
2018-Feb-12 07:45N 37°38' E 023°46'314.7
2018-Feb-12 07:31N 37°40' E 023°42'714.7
2018-Feb-12 07:00N 37°47' E 023°38'714.3
2018-Feb-12 06:30N 37°54' E 023°37'4 7.3
2018-Feb-12 06:00N 37°57' E 023°36'0 0.0
2018-Feb-12 05:30N 37°57' E 023°36'0 0.0
2018-Feb-12 04:57N 37°57' E 023°36'0 0.0
2018-Feb-12 04:30N 37°57' E 023°36'0 0.0
2018-Feb-12 04:00N 37°57' E 023°36'0 0.0
2018-Feb-12 03:30N 37°57' E 023°36'0 0.0
2018-Feb-12 03:00N 37°57' E 023°36'0 0.0
2018-Feb-12 02:30N 37°57' E 023°36'0 0.0
2018-Feb-12 02:00N 37°57' E 023°36'0 0.0
2018-Feb-12 01:30N 37°57' E 023°36'0 0.0
2018-Feb-12 01:00N 37°57' E 023°36'0 0.0
2018-Feb-12 00:30N 37°57' E 023°36'0 0.0
2018-Feb-12 00:00N 37°57' E 023°36'0 0.0
2018-Feb-11 23:30N 37°57' E 023°36'0 0.0
2018-Feb-11 23:00N 37°57' E 023°36'0 0.0
2018-Feb-11 22:30N 37°57' E 023°36'0 0.0
2018-Feb-11 22:00N 37°57' E 023°36'0 0.0
2018-Feb-11 21:30N 37°57' E 023°36'0 0.0
2018-Feb-11 20:57N 37°57' E 023°36'0 0.0
2018-Feb-11 20:27N 37°57' E 023°36'0 0.0
2018-Feb-11 20:00N 37°57' E 023°36'0 0.0
2018-Feb-11 19:30N 37°57' E 023°36'0 0.0
2018-Feb-11 19:00N 37°57' E 023°36'0 0.0
2018-Feb-11 18:30N 37°57' E 023°36'0 0.0
2018-Feb-11 18:00N 37°57' E 023°36'0 0.0
2018-Feb-11 17:30N 37°57' E 023°36'0 0.0
2018-Feb-11 17:00N 37°57' E 023°36'0 0.0
2018-Feb-11 16:30N 37°57' E 023°36'0 0.0
2018-Feb-11 16:00N 37°57' E 023°36'0 0.0
2018-Feb-11 15:30N 37°57' E 023°36'0 0.0
2018-Feb-11 15:00N 37°57' E 023°36'0 0.0
2018-Feb-11 14:27N 37°57' E 023°36'  
Track history (hours):
 
Tides and Currents Weather Stations Pressure Air Temp Water Temp Dewpoint Dewpoint Depression Visibility Wind Speed Wind Dir Waves Ship Positions

Wec Majorelle

Last reported at 2018-Feb-21 14:23 UTC. Time now 2018-Feb-22 13:14 UTC.
Position N 34°39' E 033°03'.

Length 122 m; draft 4.9 m.

Type: Ship (hazmat cat B). MMSI: 210312000.

Date/timePositionNaut miles runAvg speedWind from/ knotsBaromVisibWave heightAir tempDewpointWater temp
2018-Feb-21 14:23N 34°39' E 033°03'1 1.4
2018-Feb-21 13:27N 34°39' E 033°01'0 0.0
2018-Feb-21 12:45N 34°39' E 033°01'0 0.0
2018-Feb-21 12:30N 34°39' E 033°01'0 0.0
2018-Feb-21 11:57N 34°39' E 033°01'0 0.0
2018-Feb-21 11:30N 34°39' E 033°01'0 0.0
2018-Feb-21 11:00N 34°39' E 033°01'0 0.0
2018-Feb-21 10:27N 34°39' E 033°01'0 0.0
2018-Feb-21 10:00N 34°39' E 033°01'0 0.0
2018-Feb-21 09:29N 34°39' E 033°01'0 0.0
2018-Feb-21 08:57N 34°39' E 033°01'0 0.0
2018-Feb-21 08:30N 34°39' E 033°01'0 0.0
2018-Feb-21 08:00N 34°39' E 033°01'0 0.0
2018-Feb-21 07:30N 34°39' E 033°01'0 0.0
2018-Feb-21 07:00N 34°39' E 033°01'0 0.0
2018-Feb-21 06:30N 34°39' E 033°01'0 0.0
2018-Feb-21 05:57N 34°39' E 033°01'0 0.0
2018-Feb-21 05:30N 34°39' E 033°01'0 0.0
2018-Feb-21 05:00N 34°39' E 033°01'0 0.0
2018-Feb-21 04:30N 34°39' E 033°01'0 0.0
2018-Feb-21 03:54N 34°39' E 033°01'0 0.0
2018-Feb-21 03:30N 34°39' E 033°01'0 0.0
2018-Feb-21 03:00N 34°39' E 033°01'0 0.0
2018-Feb-21 02:30N 34°39' E 033°01'0 0.0
2018-Feb-21 01:57N 34°39' E 033°01'0 0.0
2018-Feb-21 01:27N 34°39' E 033°01'0 0.0
2018-Feb-21 00:57N 34°39' E 033°01'0 0.0
2018-Feb-21 00:27N 34°39' E 033°01'0 0.0
2018-Feb-20 23:57N 34°39' E 033°01'0 0.0
2018-Feb-20 23:30N 34°39' E 033°01'0 0.0
2018-Feb-20 23:00N 34°39' E 033°01'0 0.0
2018-Feb-20 22:30N 34°39' E 033°01'0 0.0
2018-Feb-20 22:00N 34°39' E 033°01'0 0.0
2018-Feb-20 21:30N 34°39' E 033°01'0 0.0
2018-Feb-20 21:00N 34°39' E 033°01'0 0.0
2018-Feb-20 20:30N 34°39' E 033°01'0 0.0
2018-Feb-20 19:39N 34°39' E 033°01'0 0.0
2018-Feb-20 19:30N 34°39' E 033°01'2 3.5
2018-Feb-20 18:57N 34°40' E 033°03'0 0.5
2018-Feb-20 18:28N 34°40' E 033°03'1 1.3
2018-Feb-20 18:00N 34°40' E 033°04'0 0.0
2018-Feb-20 02:57N 34°40' E 033°04'0 0.0
2018-Feb-20 01:51N 34°40' E 033°04'0 0.0
2018-Feb-20 01:24N 34°40' E 033°04'0 0.0
2018-Feb-20 00:42N 34°40' E 033°04'0 0.0
2018-Feb-20 00:30N 34°40' E 033°04'0 0.0
2018-Feb-19 23:00N 34°40' E 033°04'0 0.0
2018-Feb-19 22:21N 34°40' E 033°04'0 0.0
2018-Feb-19 22:00N 34°40' E 033°04'0 0.0
2018-Feb-19 21:18N 34°40' E 033°04'0 0.0
2018-Feb-19 21:00N 34°40' E 033°04'0 0.0
2018-Feb-19 20:27N 34°40' E 033°04'0 0.0
2018-Feb-19 20:00N 34°40' E 033°04'0 0.2
2018-Feb-19 19:30N 34°40' E 033°04'48513.6
2018-Feb-18 07:43N 37°38' E 023°45'314.1
2018-Feb-18 07:31N 37°40' E 023°43'714.4
2018-Feb-18 07:01N 37°47' E 023°39'714.4
2018-Feb-18 06:31N 37°53' E 023°36'4 7.9
2018-Feb-18 06:00N 37°57' E 023°35'0 0.1
2018-Feb-18 05:28N 37°57' E 023°35'0 0.0
2018-Feb-18 04:58N 37°57' E 023°35'0 0.1
2018-Feb-18 04:28N 37°57' E 023°35'0 0.1
2018-Feb-18 03:58N 37°57' E 023°35'0 0.0
2018-Feb-18 03:28N 37°57' E 023°35'0 0.0
2018-Feb-18 02:58N 37°57' E 023°35'0 0.0
2018-Feb-18 02:28N 37°57' E 023°35'0 0.0
2018-Feb-18 01:58N 37°57' E 023°35'0 0.0
2018-Feb-18 01:28N 37°57' E 023°35'0 0.0
2018-Feb-18 00:58N 37°57' E 023°35'0 0.0
2018-Feb-18 00:28N 37°57' E 023°35'0 0.0
2018-Feb-17 23:58N 37°57' E 023°35'0 0.0
2018-Feb-17 23:28N 37°57' E 023°35'0 0.0
2018-Feb-17 22:58N 37°57' E 023°35'0 0.0
2018-Feb-17 22:28N 37°57' E 023°35'0 0.0
2018-Feb-17 21:58N 37°57' E 023°35'0 0.0
2018-Feb-17 21:28N 37°57' E 023°35'0 0.0
2018-Feb-17 20:58N 37°57' E 023°35'0 0.0
2018-Feb-17 20:28N 37°57' E 023°35'0 0.0
2018-Feb-17 19:58N 37°57' E 023°35'0 0.0
2018-Feb-17 19:28N 37°57' E 023°35'0 0.0
2018-Feb-17 18:58N 37°57' E 023°35'0 0.0
2018-Feb-17 18:28N 37°57' E 023°35'0 0.0
2018-Feb-17 17:58N 37°57' E 023°35'0 0.0
2018-Feb-17 17:28N 37°57' E 023°35'0 0.0
2018-Feb-17 16:58N 37°57' E 023°35'0 0.0
2018-Feb-17 16:28N 37°57' E 023°35'0 0.0
2018-Feb-17 15:58N 37°57' E 023°35'0 0.0
2018-Feb-17 15:28N 37°57' E 023°35'1 1.1
2018-Feb-17 15:00N 37°57' E 023°35'1 2.8
2018-Feb-17 14:30N 37°55' E 023°35'1 1.0
2018-Feb-17 14:00N 37°55' E 023°35'1 2.3
2018-Feb-17 13:30N 37°54' E 023°34'0 0.2
2018-Feb-17 13:00N 37°54' E 023°34'0 0.0
2018-Feb-17 12:30N 37°54' E 023°34'0 0.1
2018-Feb-17 12:00N 37°54' E 023°34'0 0.0
2018-Feb-17 11:30N 37°54' E 023°34'0 0.0
2018-Feb-17 11:00N 37°54' E 023°34'0 0.1
2018-Feb-17 10:30N 37°54' E 023°34'0 0.1
2018-Feb-17 10:00N 37°54' E 023°34'0 0.1
2018-Feb-17 09:30N 37°54' E 023°34'0 0.0
2018-Feb-17 09:00N 37°54' E 023°34'0 0.0
2018-Feb-17 08:30N 37°54' E 023°34'0 0.0
2018-Feb-17 07:57N 37°54' E 023°34'0 0.2
2018-Feb-17 07:30N 37°54' E 023°34'0 0.0
2018-Feb-17 06:57N 37°54' E 023°34'0 0.1
2018-Feb-17 06:30N 37°54' E 023°34'0 0.0
2018-Feb-17 06:00N 37°54' E 023°34'0 0.0
2018-Feb-17 05:27N 37°54' E 023°34'0 0.0
2018-Feb-17 05:00N 37°54' E 023°34'0 0.0
2018-Feb-17 04:30N 37°54' E 023°34'0 0.0
2018-Feb-17 04:00N 37°54' E 023°34'0 0.0
2018-Feb-17 03:30N 37°54' E 023°34'0 0.0
2018-Feb-17 03:00N 37°54' E 023°34'0 0.0
2018-Feb-17 02:30N 37°54' E 023°34'0 0.0
2018-Feb-17 02:00N 37°54' E 023°34'0 0.1
2018-Feb-17 01:30N 37°54' E 023°34'0 0.1
2018-Feb-17 01:00N 37°54' E 023°34'0 0.0
2018-Feb-17 00:30N 37°54' E 023°34'0 0.0
2018-Feb-17 00:00N 37°54' E 023°34'0 0.0
2018-Feb-16 23:30N 37°54' E 023°34'0 0.1
2018-Feb-16 23:00N 37°54' E 023°34'0 0.0
2018-Feb-16 22:30N 37°54' E 023°34'0 0.0
2018-Feb-16 22:00N 37°54' E 023°34'0 0.1
2018-Feb-16 21:30N 37°54' E 023°34'0 0.0
2018-Feb-16 21:00N 37°54' E 023°34'0 0.0
2018-Feb-16 20:30N 37°54' E 023°34'0 0.0
2018-Feb-16 20:00N 37°54' E 023°34'0 0.1
2018-Feb-16 19:27N 37°54' E 023°34'0 0.1
2018-Feb-16 19:00N 37°54' E 023°34'0 0.0
2018-Feb-16 18:30N 37°54' E 023°34'0 0.0
2018-Feb-16 18:00N 37°54' E 023°34'0 0.0
2018-Feb-16 17:30N 37°54' E 023°34'0 0.1
2018-Feb-16 17:00N 37°54' E 023°34'0 0.1
2018-Feb-16 16:30N 37°54' E 023°34'0 0.0
2018-Feb-16 16:00N 37°54' E 023°34'0 0.1
2018-Feb-16 15:30N 37°54' E 023°34'0 0.1
2018-Feb-16 15:00N 37°54' E 023°34'0 0.1
2018-Feb-16 14:30N 37°54' E 023°34'0 0.2
2018-Feb-16 13:57N 37°54' E 023°34'0 0.2
2018-Feb-16 13:30N 37°54' E 023°34'0 0.0
2018-Feb-16 13:00N 37°54' E 023°34'0 0.1
2018-Feb-16 12:27N 37°54' E 023°34'0 0.0
2018-Feb-16 12:00N 37°54' E 023°34'0 0.0
2018-Feb-16 11:30N 37°54' E 023°34'0 0.1
2018-Feb-16 11:00N 37°54' E 023°34'0 0.1
2018-Feb-16 10:30N 37°54' E 023°34'0 0.0
2018-Feb-16 10:00N 37°54' E 023°34'0 0.0
2018-Feb-16 09:30N 37°54' E 023°34'0 0.1
2018-Feb-16 09:00N 37°54' E 023°34'0 0.1
2018-Feb-16 08:30N 37°54' E 023°34'0 0.0
2018-Feb-16 08:00N 37°54' E 023°34'0 0.1
2018-Feb-16 07:30N 37°54' E 023°34'0 0.1
2018-Feb-16 07:00N 37°54' E 023°34'0 0.0
2018-Feb-16 06:27N 37°54' E 023°34'0 0.1
2018-Feb-16 06:00N 37°54' E 023°34'0 0.0
2018-Feb-16 05:30N 37°54' E 023°34'0 0.1
2018-Feb-16 05:00N 37°54' E 023°34'0 0.0
2018-Feb-16 04:30N 37°54' E 023°34'0 0.1
2018-Feb-16 04:00N 37°54' E 023°34'0 0.0
2018-Feb-16 03:30N 37°54' E 023°34'0 0.0
2018-Feb-16 03:00N 37°54' E 023°34'0 0.0
2018-Feb-16 02:30N 37°54' E 023°34'0 0.1
2018-Feb-16 02:00N 37°54' E 023°34'0 0.1
2018-Feb-16 01:30N 37°54' E 023°34'0 0.0
2018-Feb-16 01:00N 37°54' E 023°34'0 0.1
2018-Feb-16 00:30N 37°54' E 023°34'0 0.2
2018-Feb-16 00:00N 37°54' E 023°34'2 3.9
2018-Feb-15 23:30N 37°53' E 023°35'510.7
2018-Feb-15 23:00N 37°49' E 023°40'612.6
2018-Feb-15 22:30N 37°43' E 023°44'713.0
2018-Feb-15 22:00N 37°38' E 023°49'48212.0
2018-Feb-14 05:56N 34°39' E 033°03'1 3.2
2018-Feb-14 05:30N 34°39' E 033°01'0 0.0
2018-Feb-14 05:00N 34°39' E 033°01'0 0.0
2018-Feb-14 04:30N 34°39' E 033°01'0 0.0
2018-Feb-14 04:00N 34°39' E 033°01'0 0.0
2018-Feb-14 03:24N 34°39' E 033°01'0 0.0
2018-Feb-14 03:00N 34°39' E 033°01'0 0.0
2018-Feb-14 02:30N 34°39' E 033°01'0 0.0
2018-Feb-14 02:00N 34°39' E 033°01'0 0.0
2018-Feb-14 01:30N 34°39' E 033°01'0 0.0
2018-Feb-14 00:57N 34°39' E 033°01'0 0.0
2018-Feb-14 00:15N 34°39' E 033°01'0 0.0
2018-Feb-14 00:00N 34°39' E 033°01'0 0.0
2018-Feb-13 23:30N 34°39' E 033°01'0 0.0
2018-Feb-13 23:00N 34°39' E 033°01'0 0.0
2018-Feb-13 22:30N 34°39' E 033°01'0 0.0
2018-Feb-13 21:57N 34°39' E 033°01'0 0.0
2018-Feb-13 21:30N 34°39' E 033°01'0 0.0
2018-Feb-13 21:00N 34°39' E 033°01'0 0.0
2018-Feb-13 20:30N 34°39' E 033°01'0 0.0
2018-Feb-13 20:00N 34°39' E 033°01'1 3.0
2018-Feb-13 19:30N 34°39' E 033°03'48413.5
2018-Feb-12 07:45N 37°38' E 023°46'314.7
2018-Feb-12 07:31N 37°40' E 023°42'714.7
2018-Feb-12 07:00N 37°47' E 023°38'714.3
2018-Feb-12 06:30N 37°54' E 023°37'4 7.3
2018-Feb-12 06:00N 37°57' E 023°36'0 0.0
2018-Feb-12 05:30N 37°57' E 023°36'0 0.0
2018-Feb-12 04:57N 37°57' E 023°36'0 0.0
2018-Feb-12 04:30N 37°57' E 023°36'0 0.0
2018-Feb-12 04:00N 37°57' E 023°36'0 0.0
2018-Feb-12 03:30N 37°57' E 023°36'0 0.0
2018-Feb-12 03:00N 37°57' E 023°36'0 0.0
2018-Feb-12 02:30N 37°57' E 023°36'0 0.0
2018-Feb-12 02:00N 37°57' E 023°36'0 0.0
2018-Feb-12 01:30N 37°57' E 023°36'0 0.0
2018-Feb-12 01:00N 37°57' E 023°36'0 0.0
2018-Feb-12 00:30N 37°57' E 023°36'0 0.0
2018-Feb-12 00:00N 37°57' E 023°36'0 0.0
2018-Feb-11 23:30N 37°57' E 023°36'0 0.0
2018-Feb-11 23:00N 37°57' E 023°36'0 0.0
2018-Feb-11 22:30N 37°57' E 023°36'0 0.0
2018-Feb-11 22:00N 37°57' E 023°36'0 0.0
2018-Feb-11 21:30N 37°57' E 023°36'0 0.0
2018-Feb-11 20:57N 37°57' E 023°36'0 0.0
2018-Feb-11 20:27N 37°57' E 023°36'0 0.0
2018-Feb-11 20:00N 37°57' E 023°36'0 0.0
2018-Feb-11 19:30N 37°57' E 023°36'0 0.0
2018-Feb-11 19:00N 37°57' E 023°36'0 0.0
2018-Feb-11 18:30N 37°57' E 023°36'0 0.0
2018-Feb-11 18:00N 37°57' E 023°36'0 0.0
2018-Feb-11 17:30N 37°57' E 023°36'0 0.0
2018-Feb-11 17:00N 37°57' E 023°36'0 0.0
2018-Feb-11 16:30N 37°57' E 023°36'0 0.0
2018-Feb-11 16:00N 37°57' E 023°36'0 0.0
2018-Feb-11 15:30N 37°57' E 023°36'0 0.0
2018-Feb-11 15:00N 37°57' E 023°36'0 0.0
2018-Feb-11 14:27N 37°57' E 023°36'  

Dump ship's entire track history